sensor_id;sensor_type;location;lat;lon;timestamp;P1;durP1;ratioP1;P2;durP2;ratioP2
14470;SDS011;7321;50.802;4.336;2023-02-28T00:01:21;7.47;;;6.37;;
14470;SDS011;7321;50.802;4.336;2023-02-28T00:03:47;9.43;;;7.17;;
14470;SDS011;7321;50.802;4.336;2023-02-28T00:06:13;8.13;;;7.23;;
14470;SDS011;7321;50.802;4.336;2023-02-28T00:08:39;8.57;;;7.30;;
14470;SDS011;7321;50.802;4.336;2023-02-28T00:11:06;7.57;;;6.57;;
14470;SDS011;7321;50.802;4.336;2023-02-28T00:13:33;9.57;;;6.90;;
14470;SDS011;7321;50.802;4.336;2023-02-28T00:16:05;7.93;;;6.70;;
14470;SDS011;7321;50.802;4.336;2023-02-28T00:18:33;8.00;;;7.17;;
14470;SDS011;7321;50.802;4.336;2023-02-28T00:20:59;8.40;;;6.80;;
14470;SDS011;7321;50.802;4.336;2023-02-28T00:23:25;8.30;;;6.63;;
14470;SDS011;7321;50.802;4.336;2023-02-28T00:25:52;9.67;;;6.67;;
14470;SDS011;7321;50.802;4.336;2023-02-28T00:28:18;9.53;;;6.83;;
14470;SDS011;7321;50.802;4.336;2023-02-28T00:30:44;9.33;;;7.07;;
14470;SDS011;7321;50.802;4.336;2023-02-28T00:33:09;6.07;;;5.57;;
14470;SDS011;7321;50.802;4.336;2023-02-28T00:35:35;8.53;;;6.10;;
14470;SDS011;7321;50.802;4.336;2023-02-28T00:38:01;8.73;;;6.67;;
14470;SDS011;7321;50.802;4.336;2023-02-28T00:40:27;10.80;;;6.30;;
14470;SDS011;7321;50.802;4.336;2023-02-28T00:42:54;8.27;;;6.80;;
14470;SDS011;7321;50.802;4.336;2023-02-28T00:45:20;7.30;;;6.60;;
14470;SDS011;7321;50.802;4.336;2023-02-28T00:47:46;7.50;;;6.40;;
14470;SDS011;7321;50.802;4.336;2023-02-28T00:50:15;7.60;;;6.43;;
14470;SDS011;7321;50.802;4.336;2023-02-28T00:52:45;9.87;;;6.83;;
14470;SDS011;7321;50.802;4.336;2023-02-28T00:55:11;7.37;;;6.40;;
14470;SDS011;7321;50.802;4.336;2023-02-28T00:57:37;9.83;;;6.67;;
14470;SDS011;7321;50.802;4.336;2023-02-28T01:00:04;8.20;;;6.77;;
14470;SDS011;7321;50.802;4.336;2023-02-28T01:02:30;8.83;;;6.57;;
14470;SDS011;7321;50.802;4.336;2023-02-28T01:04:56;7.27;;;6.13;;
14470;SDS011;7321;50.802;4.336;2023-02-28T01:07:22;8.33;;;6.70;;
14470;SDS011;7321;50.802;4.336;2023-02-28T01:09:48;7.97;;;7.13;;
14470;SDS011;7321;50.802;4.336;2023-02-28T01:12:14;7.67;;;6.57;;
14470;SDS011;7321;50.802;4.336;2023-02-28T01:14:41;10.17;;;7.27;;
14470;SDS011;7321;50.802;4.336;2023-02-28T01:17:07;8.87;;;7.63;;
14470;SDS011;7321;50.802;4.336;2023-02-28T01:19:33;7.30;;;6.33;;
14470;SDS011;7321;50.802;4.336;2023-02-28T01:22:05;7.77;;;6.80;;
14470;SDS011;7321;50.802;4.336;2023-02-28T01:24:32;8.43;;;7.30;;
14470;SDS011;7321;50.802;4.336;2023-02-28T01:26:58;11.40;;;7.30;;
14470;SDS011;7321;50.802;4.336;2023-02-28T01:29:24;9.00;;;7.00;;
14470;SDS011;7321;50.802;4.336;2023-02-28T01:31:50;10.70;;;7.60;;
14470;SDS011;7321;50.802;4.336;2023-02-28T01:34:17;8.57;;;7.57;;
14470;SDS011;7321;50.802;4.336;2023-02-28T01:36:44;10.57;;;8.13;;
14470;SDS011;7321;50.802;4.336;2023-02-28T01:39:11;10.97;;;7.33;;
14470;SDS011;7321;50.802;4.336;2023-02-28T01:41:37;9.13;;;7.63;;
14470;SDS011;7321;50.802;4.336;2023-02-28T01:44:05;9.30;;;8.30;;
14470;SDS011;7321;50.802;4.336;2023-02-28T01:46:50;9.03;;;7.13;;
14470;SDS011;7321;50.802;4.336;2023-02-28T01:49:16;8.17;;;7.33;;
14470;SDS011;7321;50.802;4.336;2023-02-28T01:51:50;9.07;;;8.13;;
14470;SDS011;7321;50.802;4.336;2023-02-28T01:54:27;10.20;;;7.50;;
14470;SDS011;7321;50.802;4.336;2023-02-28T01:56:58;8.77;;;7.33;;
14470;SDS011;7321;50.802;4.336;2023-02-28T01:59:40;8.77;;;7.37;;
14470;SDS011;7321;50.802;4.336;2023-02-28T02:02:11;8.30;;;7.43;;
14470;SDS011;7321;50.802;4.336;2023-02-28T02:04:39;8.47;;;7.63;;
14470;SDS011;7321;50.802;4.336;2023-02-28T02:07:12;8.67;;;7.07;;
14470;SDS011;7321;50.802;4.336;2023-02-28T02:09:39;9.80;;;7.87;;
14470;SDS011;7321;50.802;4.336;2023-02-28T02:12:09;9.40;;;7.73;;
14470;SDS011;7321;50.802;4.336;2023-02-28T02:17:48;8.73;;;7.77;;
14470;SDS011;7321;50.802;4.336;2023-02-28T02:28:35;9.47;;;8.13;;
14470;SDS011;7321;50.802;4.336;2023-02-28T02:31:26;12.10;;;8.50;;
14470;SDS011;7321;50.802;4.336;2023-02-28T02:40:14;10.97;;;8.43;;
14470;SDS011;7321;50.802;4.336;2023-02-28T02:45:30;9.57;;;8.57;;
14470;SDS011;7321;50.802;4.336;2023-02-28T02:48:18;11.13;;;8.67;;
14470;SDS011;7321;50.802;4.336;2023-02-28T02:50:48;10.87;;;8.80;;
14470;SDS011;7321;50.802;4.336;2023-02-28T02:53:18;12.63;;;9.70;;
14470;SDS011;7321;50.802;4.336;2023-02-28T02:55:52;9.47;;;8.47;;
14470;SDS011;7321;50.802;4.336;2023-02-28T02:58:22;9.60;;;8.17;;
14470;SDS011;7321;50.802;4.336;2023-02-28T03:00:55;9.20;;;8.30;;
14470;SDS011;7321;50.802;4.336;2023-02-28T03:03:25;11.20;;;10.00;;
14470;SDS011;7321;50.802;4.336;2023-02-28T03:05:56;12.27;;;9.10;;
14470;SDS011;7321;50.802;4.336;2023-02-28T03:08:23;10.17;;;9.00;;
14470;SDS011;7321;50.802;4.336;2023-02-28T03:10:50;12.37;;;9.40;;
14470;SDS011;7321;50.802;4.336;2023-02-28T03:19:39;11.80;;;10.23;;
14470;SDS011;7321;50.802;4.336;2023-02-28T03:27:32;11.30;;;9.30;;
14470;SDS011;7321;50.802;4.336;2023-02-28T03:33:02;13.47;;;9.50;;
14470;SDS011;7321;50.802;4.336;2023-02-28T03:35:42;12.13;;;9.73;;
14470;SDS011;7321;50.802;4.336;2023-02-28T03:38:27;14.93;;;10.03;;
14470;SDS011;7321;50.802;4.336;2023-02-28T03:41:03;14.20;;;10.03;;
14470;SDS011;7321;50.802;4.336;2023-02-28T03:43:45;15.13;;;10.47;;
14470;SDS011;7321;50.802;4.336;2023-02-28T03:46:19;17.17;;;10.57;;
14470;SDS011;7321;50.802;4.336;2023-02-28T03:49:07;16.33;;;10.80;;
14470;SDS011;7321;50.802;4.336;2023-02-28T03:51:40;12.30;;;10.93;;
14470;SDS011;7321;50.802;4.336;2023-02-28T03:54:09;11.83;;;10.37;;
14470;SDS011;7321;50.802;4.336;2023-02-28T03:56:40;14.83;;;11.20;;
14470;SDS011;7321;50.802;4.336;2023-02-28T03:59:15;13.73;;;11.33;;
14470;SDS011;7321;50.802;4.336;2023-02-28T04:01:51;13.23;;;11.07;;
14470;SDS011;7321;50.802;4.336;2023-02-28T04:04:17;12.40;;;10.03;;
14470;SDS011;7321;50.802;4.336;2023-02-28T04:06:43;12.83;;;10.57;;
14470;SDS011;7321;50.802;4.336;2023-02-28T04:09:10;16.60;;;11.43;;
14470;SDS011;7321;50.802;4.336;2023-02-28T04:11:38;13.70;;;11.57;;
14470;SDS011;7321;50.802;4.336;2023-02-28T04:14:14;17.10;;;11.03;;
14470;SDS011;7321;50.802;4.336;2023-02-28T04:16:41;16.87;;;11.73;;
14470;SDS011;7321;50.802;4.336;2023-02-28T04:19:11;14.67;;;11.73;;
14470;SDS011;7321;50.802;4.336;2023-02-28T04:21:39;16.43;;;12.13;;
14470;SDS011;7321;50.802;4.336;2023-02-28T04:24:09;16.33;;;11.83;;
14470;SDS011;7321;50.802;4.336;2023-02-28T04:26:43;15.70;;;11.87;;
14470;SDS011;7321;50.802;4.336;2023-02-28T04:29:12;17.37;;;11.77;;
14470;SDS011;7321;50.802;4.336;2023-02-28T04:31:42;16.20;;;12.00;;
14470;SDS011;7321;50.802;4.336;2023-02-28T04:34:08;13.30;;;11.37;;
14470;SDS011;7321;50.802;4.336;2023-02-28T04:36:34;16.13;;;12.83;;
14470;SDS011;7321;50.802;4.336;2023-02-28T04:39:00;15.93;;;12.53;;
14470;SDS011;7321;50.802;4.336;2023-02-28T04:41:25;18.57;;;12.87;;
14470;SDS011;7321;50.802;4.336;2023-02-28T04:43:52;14.57;;;12.07;;
14470;SDS011;7321;50.802;4.336;2023-02-28T04:46:18;16.97;;;11.90;;
14470;SDS011;7321;50.802;4.336;2023-02-28T04:48:45;14.63;;;11.67;;
14470;SDS011;7321;50.802;4.336;2023-02-28T04:51:12;14.30;;;11.77;;
14470;SDS011;7321;50.802;4.336;2023-02-28T04:53:41;15.57;;;12.43;;
14470;SDS011;7321;50.802;4.336;2023-02-28T04:56:08;16.30;;;12.73;;
14470;SDS011;7321;50.802;4.336;2023-02-28T04:58:37;15.77;;;12.20;;
14470;SDS011;7321;50.802;4.336;2023-02-28T05:01:06;14.10;;;11.93;;
14470;SDS011;7321;50.802;4.336;2023-02-28T05:03:55;21.30;;;12.10;;
14470;SDS011;7321;50.802;4.336;2023-02-28T05:06:23;13.60;;;12.00;;
14470;SDS011;7321;50.802;4.336;2023-02-28T05:08:51;15.40;;;12.17;;
14470;SDS011;7321;50.802;4.336;2023-02-28T05:13:48;15.47;;;12.67;;
14470;SDS011;7321;50.802;4.336;2023-02-28T05:16:15;16.87;;;12.67;;
14470;SDS011;7321;50.802;4.336;2023-02-28T05:18:41;13.53;;;12.13;;
14470;SDS011;7321;50.802;4.336;2023-02-28T05:23:57;16.43;;;12.03;;
14470;SDS011;7321;50.802;4.336;2023-02-28T05:26:25;15.67;;;13.57;;
14470;SDS011;7321;50.802;4.336;2023-02-28T05:28:53;15.03;;;12.90;;
14470;SDS011;7321;50.802;4.336;2023-02-28T05:31:19;13.73;;;12.07;;
14470;SDS011;7321;50.802;4.336;2023-02-28T05:33:45;15.73;;;12.87;;
14470;SDS011;7321;50.802;4.336;2023-02-28T05:36:11;15.80;;;12.83;;
14470;SDS011;7321;50.802;4.336;2023-02-28T05:38:37;16.27;;;12.57;;
14470;SDS011;7321;50.802;4.336;2023-02-28T05:41:07;14.50;;;12.10;;
14470;SDS011;7321;50.802;4.336;2023-02-28T05:43:34;15.20;;;12.37;;
14470;SDS011;7321;50.802;4.336;2023-02-28T05:46:04;14.63;;;12.03;;
14470;SDS011;7321;50.802;4.336;2023-02-28T05:48:31;14.37;;;12.27;;
14470;SDS011;7321;50.802;4.336;2023-02-28T05:50:58;14.13;;;12.37;;
14470;SDS011;7321;50.802;4.336;2023-02-28T05:53:24;14.07;;;11.93;;
14470;SDS011;7321;50.802;4.336;2023-02-28T05:55:51;15.43;;;12.13;;
14470;SDS011;7321;50.802;4.336;2023-02-28T05:58:17;14.20;;;11.63;;
14470;SDS011;7321;50.802;4.336;2023-02-28T06:00:43;14.50;;;12.70;;
14470;SDS011;7321;50.802;4.336;2023-02-28T06:03:09;14.10;;;12.13;;
14470;SDS011;7321;50.802;4.336;2023-02-28T06:05:35;14.80;;;12.53;;
14470;SDS011;7321;50.802;4.336;2023-02-28T06:08:01;18.07;;;12.63;;
14470;SDS011;7321;50.802;4.336;2023-02-28T06:10:27;14.10;;;12.23;;
14470;SDS011;7321;50.802;4.336;2023-02-28T06:12:52;15.63;;;11.70;;
14470;SDS011;7321;50.802;4.336;2023-02-28T06:15:18;14.30;;;11.40;;
14470;SDS011;7321;50.802;4.336;2023-02-28T06:17:45;13.80;;;12.27;;
14470;SDS011;7321;50.802;4.336;2023-02-28T06:20:12;15.70;;;12.07;;
14470;SDS011;7321;50.802;4.336;2023-02-28T06:22:38;16.80;;;12.07;;
14470;SDS011;7321;50.802;4.336;2023-02-28T06:25:07;19.80;;;13.80;;
14470;SDS011;7321;50.802;4.336;2023-02-28T06:27:33;16.20;;;12.23;;
14470;SDS011;7321;50.802;4.336;2023-02-28T06:29:59;15.00;;;11.80;;
14470;SDS011;7321;50.802;4.336;2023-02-28T06:32:25;31.17;;;22.80;;
14470;SDS011;7321;50.802;4.336;2023-02-28T06:34:51;24.13;;;19.33;;
14470;SDS011;7321;50.802;4.336;2023-02-28T06:37:17;20.63;;;15.20;;
14470;SDS011;7321;50.802;4.336;2023-02-28T06:39:43;15.73;;;11.23;;
14470;SDS011;7321;50.802;4.336;2023-02-28T06:42:09;12.47;;;11.27;;
14470;SDS011;7321;50.802;4.336;2023-02-28T06:44:35;18.13;;;14.37;;
14470;SDS011;7321;50.802;4.336;2023-02-28T06:47:02;16.07;;;12.17;;
14470;SDS011;7321;50.802;4.336;2023-02-28T06:49:30;14.73;;;11.53;;
14470;SDS011;7321;50.802;4.336;2023-02-28T06:51:57;15.73;;;11.17;;
14470;SDS011;7321;50.802;4.336;2023-02-28T06:54:23;15.67;;;11.73;;
14470;SDS011;7321;50.802;4.336;2023-02-28T06:56:49;14.77;;;11.43;;
14470;SDS011;7321;50.802;4.336;2023-02-28T06:59:15;12.80;;;11.33;;
14470;SDS011;7321;50.802;4.336;2023-02-28T07:01:42;12.43;;;10.73;;
14470;SDS011;7321;50.802;4.336;2023-02-28T07:04:08;14.33;;;11.07;;
14470;SDS011;7321;50.802;4.336;2023-02-28T07:06:33;12.77;;;10.47;;
14470;SDS011;7321;50.802;4.336;2023-02-28T07:08:59;13.90;;;11.33;;
14470;SDS011;7321;50.802;4.336;2023-02-28T07:11:26;15.93;;;11.60;;
14470;SDS011;7321;50.802;4.336;2023-02-28T07:13:53;15.57;;;10.90;;
14470;SDS011;7321;50.802;4.336;2023-02-28T07:16:20;14.97;;;10.60;;
14470;SDS011;7321;50.802;4.336;2023-02-28T07:18:46;14.00;;;10.93;;
14470;SDS011;7321;50.802;4.336;2023-02-28T07:21:13;13.33;;;10.57;;
14470;SDS011;7321;50.802;4.336;2023-02-28T07:23:39;14.80;;;10.60;;
14470;SDS011;7321;50.802;4.336;2023-02-28T07:26:12;13.83;;;11.13;;
14470;SDS011;7321;50.802;4.336;2023-02-28T07:28:46;14.43;;;11.53;;
14470;SDS011;7321;50.802;4.336;2023-02-28T07:31:13;12.13;;;10.00;;
14470;SDS011;7321;50.802;4.336;2023-02-28T07:33:40;11.03;;;8.47;;
14470;SDS011;7321;50.802;4.336;2023-02-28T07:36:08;10.97;;;9.20;;
14470;SDS011;7321;50.802;4.336;2023-02-28T07:38:43;10.73;;;9.60;;
14470;SDS011;7321;50.802;4.336;2023-02-28T07:41:20;16.20;;;10.23;;
14470;SDS011;7321;50.802;4.336;2023-02-28T07:43:47;10.43;;;9.33;;
14470;SDS011;7321;50.802;4.336;2023-02-28T07:46:14;10.87;;;9.23;;
14470;SDS011;7321;50.802;4.336;2023-02-28T07:48:41;12.50;;;9.07;;
14470;SDS011;7321;50.802;4.336;2023-02-28T07:51:08;34.50;;;25.43;;
14470;SDS011;7321;50.802;4.336;2023-02-28T07:53:34;12.77;;;8.43;;
14470;SDS011;7321;50.802;4.336;2023-02-28T07:56:00;11.53;;;8.73;;
14470;SDS011;7321;50.802;4.336;2023-02-28T07:58:28;10.03;;;8.40;;
14470;SDS011;7321;50.802;4.336;2023-02-28T08:00:55;11.17;;;7.73;;
14470;SDS011;7321;50.802;4.336;2023-02-28T08:03:21;15.27;;;13.67;;
14470;SDS011;7321;50.802;4.336;2023-02-28T08:05:48;7.87;;;6.87;;
14470;SDS011;7321;50.802;4.336;2023-02-28T08:08:14;12.17;;;7.70;;
14470;SDS011;7321;50.802;4.336;2023-02-28T08:10:41;8.60;;;6.90;;
14470;SDS011;7321;50.802;4.336;2023-02-28T08:13:07;9.50;;;7.00;;
14470;SDS011;7321;50.802;4.336;2023-02-28T08:15:33;8.23;;;6.80;;
14470;SDS011;7321;50.802;4.336;2023-02-28T08:17:59;8.63;;;7.40;;
14470;SDS011;7321;50.802;4.336;2023-02-28T08:20:25;9.00;;;7.03;;
14470;SDS011;7321;50.802;4.336;2023-02-28T08:22:51;13.77;;;6.53;;
14470;SDS011;7321;50.802;4.336;2023-02-28T08:25:17;7.60;;;6.40;;
14470;SDS011;7321;50.802;4.336;2023-02-28T08:27:44;9.13;;;6.60;;
14470;SDS011;7321;50.802;4.336;2023-02-28T08:30:10;6.70;;;5.70;;
14470;SDS011;7321;50.802;4.336;2023-02-28T08:32:37;11.30;;;6.00;;
14470;SDS011;7321;50.802;4.336;2023-02-28T08:35:04;6.73;;;5.87;;
14470;SDS011;7321;50.802;4.336;2023-02-28T08:37:30;7.73;;;6.17;;
14470;SDS011;7321;50.802;4.336;2023-02-28T08:39:56;8.17;;;6.43;;
14470;SDS011;7321;50.802;4.336;2023-02-28T08:42:22;6.20;;;4.83;;
14470;SDS011;7321;50.802;4.336;2023-02-28T08:44:48;8.07;;;6.57;;
14470;SDS011;7321;50.802;4.336;2023-02-28T08:47:14;6.87;;;6.07;;
14470;SDS011;7321;50.802;4.336;2023-02-28T08:49:40;6.67;;;5.90;;
14470;SDS011;7321;50.802;4.336;2023-02-28T08:52:09;6.77;;;6.07;;
14470;SDS011;7321;50.802;4.336;2023-02-28T08:54:35;8.33;;;6.13;;
14470;SDS011;7321;50.802;4.336;2023-02-28T08:57:01;7.17;;;6.30;;
14470;SDS011;7321;50.802;4.336;2023-02-28T08:59:27;7.03;;;6.33;;
14470;SDS011;7321;50.802;4.336;2023-02-28T09:01:56;9.07;;;5.77;;
14470;SDS011;7321;50.802;4.336;2023-02-28T09:04:22;6.90;;;5.97;;
14470;SDS011;7321;50.802;4.336;2023-02-28T09:06:51;8.17;;;6.17;;
14470;SDS011;7321;50.802;4.336;2023-02-28T09:09:17;5.93;;;5.43;;
14470;SDS011;7321;50.802;4.336;2023-02-28T09:11:42;7.13;;;5.83;;
14470;SDS011;7321;50.802;4.336;2023-02-28T09:14:08;7.23;;;5.80;;
14470;SDS011;7321;50.802;4.336;2023-02-28T09:16:34;6.63;;;5.70;;
14470;SDS011;7321;50.802;4.336;2023-02-28T09:19:00;6.90;;;5.80;;
14470;SDS011;7321;50.802;4.336;2023-02-28T09:21:27;7.67;;;5.67;;
14470;SDS011;7321;50.802;4.336;2023-02-28T09:23:53;9.87;;;5.53;;
14470;SDS011;7321;50.802;4.336;2023-02-28T09:26:20;7.17;;;4.77;;
14470;SDS011;7321;50.802;4.336;2023-02-28T09:28:51;7.13;;;4.87;;
14470;SDS011;7321;50.802;4.336;2023-02-28T09:31:19;7.20;;;5.00;;
14470;SDS011;7321;50.802;4.336;2023-02-28T09:33:56;7.87;;;5.23;;
14470;SDS011;7321;50.802;4.336;2023-02-28T09:36:23;6.77;;;4.70;;
14470;SDS011;7321;50.802;4.336;2023-02-28T09:38:50;6.10;;;4.40;;
14470;SDS011;7321;50.802;4.336;2023-02-28T09:41:37;4.87;;;4.30;;
14470;SDS011;7321;50.802;4.336;2023-02-28T09:44:13;4.57;;;4.10;;
14470;SDS011;7321;50.802;4.336;2023-02-28T09:47:05;6.70;;;5.10;;
14470;SDS011;7321;50.802;4.336;2023-02-28T09:49:47;4.93;;;4.33;;
14470;SDS011;7321;50.802;4.336;2023-02-28T09:52:15;4.80;;;4.27;;
14470;SDS011;7321;50.802;4.336;2023-02-28T09:54:44;5.43;;;4.50;;
14470;SDS011;7321;50.802;4.336;2023-02-28T10:03:19;5.20;;;3.90;;
14470;SDS011;7321;50.802;4.336;2023-02-28T10:06:05;4.40;;;3.97;;
14470;SDS011;7321;50.802;4.336;2023-02-28T10:11:25;4.50;;;3.50;;
14470;SDS011;7321;50.802;4.336;2023-02-28T10:16:45;4.00;;;3.60;;
14470;SDS011;7321;50.802;4.336;2023-02-28T10:22:20;4.13;;;3.20;;
14470;SDS011;7321;50.802;4.336;2023-02-28T10:25:15;4.03;;;3.73;;
14470;SDS011;7321;50.802;4.336;2023-02-28T10:27:46;4.90;;;3.90;;
14470;SDS011;7321;50.802;4.336;2023-02-28T10:30:13;5.77;;;3.73;;
14470;SDS011;7321;50.802;4.336;2023-02-28T10:32:39;6.73;;;3.20;;
14470;SDS011;7321;50.802;4.336;2023-02-28T10:37:42;4.07;;;3.40;;
14470;SDS011;7321;50.802;4.336;2023-02-28T10:42:42;6.27;;;3.53;;
14470;SDS011;7321;50.802;4.336;2023-02-28T10:45:31;3.67;;;3.37;;
14470;SDS011;7321;50.802;4.336;2023-02-28T10:55:44;3.10;;;2.80;;
14470;SDS011;7321;50.802;4.336;2023-02-28T10:58:23;2.90;;;2.63;;
14470;SDS011;7321;50.802;4.336;2023-02-28T11:00:50;3.37;;;2.77;;
14470;SDS011;7321;50.802;4.336;2023-02-28T11:06:06;6.10;;;2.90;;
14470;SDS011;7321;50.802;4.336;2023-02-28T11:08:45;3.77;;;3.37;;
14470;SDS011;7321;50.802;4.336;2023-02-28T11:11:24;3.10;;;2.70;;
14470;SDS011;7321;50.802;4.336;2023-02-28T11:13:53;3.73;;;3.43;;
14470;SDS011;7321;50.802;4.336;2023-02-28T11:16:22;3.27;;;2.97;;
14470;SDS011;7321;50.802;4.336;2023-02-28T11:18:58;3.57;;;3.27;;
14470;SDS011;7321;50.802;4.336;2023-02-28T11:23:56;3.73;;;3.40;;
14470;SDS011;7321;50.802;4.336;2023-02-28T11:26:44;4.03;;;3.63;;
14470;SDS011;7321;50.802;4.336;2023-02-28T11:29:15;4.10;;;3.30;;
14470;SDS011;7321;50.802;4.336;2023-02-28T11:32:00;3.87;;;3.43;;
14470;SDS011;7321;50.802;4.336;2023-02-28T11:34:28;4.13;;;3.50;;
14470;SDS011;7321;50.802;4.336;2023-02-28T11:36:55;6.17;;;3.77;;
14470;SDS011;7321;50.802;4.336;2023-02-28T11:39:23;3.90;;;3.50;;
14470;SDS011;7321;50.802;4.336;2023-02-28T11:47:38;4.00;;;3.70;;
14470;SDS011;7321;50.802;4.336;2023-02-28T11:53:10;4.37;;;3.50;;
14470;SDS011;7321;50.802;4.336;2023-02-28T11:56:03;7.10;;;5.23;;
14470;SDS011;7321;50.802;4.336;2023-02-28T11:58:55;4.73;;;4.10;;
14470;SDS011;7321;50.802;4.336;2023-02-28T12:01:39;4.00;;;3.60;;
14470;SDS011;7321;50.802;4.336;2023-02-28T12:24:14;4.53;;;3.70;;
14470;SDS011;7321;50.802;4.336;2023-02-28T12:27:09;5.07;;;3.53;;
14470;SDS011;7321;50.802;4.336;2023-02-28T12:30:24;4.33;;;3.50;;
14470;SDS011;7321;50.802;4.336;2023-02-28T12:32:30;4.10;;;3.70;;
14470;SDS011;7321;50.802;4.336;2023-02-28T12:35:01;3.67;;;3.37;;
14470;SDS011;7321;50.802;4.336;2023-02-28T12:37:35;4.87;;;4.00;;
14470;SDS011;7321;50.802;4.336;2023-02-28T12:40:06;3.43;;;3.23;;
14470;SDS011;7321;50.802;4.336;2023-02-28T12:42:42;6.53;;;3.63;;
14470;SDS011;7321;50.802;4.336;2023-02-28T12:45:18;3.73;;;3.40;;
14470;SDS011;7321;50.802;4.336;2023-02-28T12:47:48;3.83;;;3.43;;
14470;SDS011;7321;50.802;4.336;2023-02-28T12:50:20;3.97;;;3.20;;
14470;SDS011;7321;50.802;4.336;2023-02-28T12:52:55;3.73;;;3.27;;
14470;SDS011;7321;50.802;4.336;2023-02-28T13:04:29;3.80;;;3.50;;
14470;SDS011;7321;50.802;4.336;2023-02-28T13:09:28;4.33;;;3.60;;
14470;SDS011;7321;50.802;4.336;2023-02-28T13:11:54;3.77;;;3.47;;
14470;SDS011;7321;50.802;4.336;2023-02-28T13:14:28;3.70;;;3.27;;
14470;SDS011;7321;50.802;4.336;2023-02-28T13:22:04;3.50;;;3.30;;
14470;SDS011;7321;50.802;4.336;2023-02-28T13:35:34;4.10;;;3.80;;
14470;SDS011;7321;50.802;4.336;2023-02-28T13:39:58;4.13;;;3.77;;
14470;SDS011;7321;50.802;4.336;2023-02-28T13:47:55;4.37;;;3.60;;
14470;SDS011;7321;50.802;4.336;2023-02-28T13:50:37;4.07;;;3.67;;
14470;SDS011;7321;50.802;4.336;2023-02-28T13:56:07;3.87;;;3.07;;
14470;SDS011;7321;50.802;4.336;2023-02-28T13:59:03;4.80;;;3.80;;
14470;SDS011;7321;50.802;4.336;2023-02-28T14:06:51;4.13;;;3.30;;
14470;SDS011;7321;50.802;4.336;2023-02-28T14:11:53;4.50;;;4.03;;
14470;SDS011;7321;50.802;4.336;2023-02-28T14:15:02;4.17;;;3.60;;
14470;SDS011;7321;50.802;4.336;2023-02-28T14:17:12;4.73;;;3.50;;
14470;SDS011;7321;50.802;4.336;2023-02-28T14:19:41;5.30;;;4.07;;
14470;SDS011;7321;50.802;4.336;2023-02-28T14:25:22;4.90;;;4.00;;
14470;SDS011;7321;50.802;4.336;2023-02-28T14:30:57;4.17;;;3.30;;
14470;SDS011;7321;50.802;4.336;2023-02-28T14:33:43;5.70;;;3.50;;
14470;SDS011;7321;50.802;4.336;2023-02-28T14:36:26;5.50;;;4.43;;
14470;SDS011;7321;50.802;4.336;2023-02-28T14:39:01;4.53;;;3.83;;
14470;SDS011;7321;50.802;4.336;2023-02-28T14:41:39;7.23;;;5.03;;
14470;SDS011;7321;50.802;4.336;2023-02-28T14:44:19;15.40;;;10.23;;
14470;SDS011;7321;50.802;4.336;2023-02-28T14:46:52;7.20;;;4.63;;
14470;SDS011;7321;50.802;4.336;2023-02-28T14:49:26;5.30;;;3.70;;
14470;SDS011;7321;50.802;4.336;2023-02-28T14:52:02;15.40;;;7.73;;
14470;SDS011;7321;50.802;4.336;2023-02-28T14:54:34;3.80;;;3.50;;
14470;SDS011;7321;50.802;4.336;2023-02-28T14:57:02;4.73;;;3.93;;
14470;SDS011;7321;50.802;4.336;2023-02-28T14:59:29;4.63;;;4.23;;
14470;SDS011;7321;50.802;4.336;2023-02-28T15:04:42;4.43;;;4.03;;
14470;SDS011;7321;50.802;4.336;2023-02-28T15:07:13;6.17;;;4.50;;
14470;SDS011;7321;50.802;4.336;2023-02-28T15:09:39;4.83;;;4.20;;
14470;SDS011;7321;50.802;4.336;2023-02-28T15:12:06;4.83;;;4.23;;
14470;SDS011;7321;50.802;4.336;2023-02-28T15:14:32;4.67;;;4.27;;
14470;SDS011;7321;50.802;4.336;2023-02-28T15:17:05;4.67;;;4.17;;
14470;SDS011;7321;50.802;4.336;2023-02-28T15:19:37;5.13;;;4.63;;
14470;SDS011;7321;50.802;4.336;2023-02-28T15:22:10;4.57;;;4.10;;
14470;SDS011;7321;50.802;4.336;2023-02-28T15:27:15;4.87;;;4.40;;
14470;SDS011;7321;50.802;4.336;2023-02-28T15:29:50;5.90;;;4.13;;
14470;SDS011;7321;50.802;4.336;2023-02-28T15:32:30;4.70;;;4.23;;
14470;SDS011;7321;50.802;4.336;2023-02-28T15:34:57;11.37;;;7.27;;
14470;SDS011;7321;50.802;4.336;2023-02-28T15:37:38;4.57;;;4.17;;
14470;SDS011;7321;50.802;4.336;2023-02-28T15:40:17;5.30;;;4.50;;
14470;SDS011;7321;50.802;4.336;2023-02-28T15:45:46;4.87;;;4.27;;
14470;SDS011;7321;50.802;4.336;2023-02-28T15:48:17;4.93;;;4.50;;
14470;SDS011;7321;50.802;4.336;2023-02-28T15:50:48;5.83;;;4.80;;
14470;SDS011;7321;50.802;4.336;2023-02-28T15:53:24;4.97;;;4.40;;
14470;SDS011;7321;50.802;4.336;2023-02-28T15:55:58;6.73;;;4.60;;
14470;SDS011;7321;50.802;4.336;2023-02-28T15:58:27;5.80;;;4.37;;
14470;SDS011;7321;50.802;4.336;2023-02-28T16:01:28;5.07;;;4.57;;
14470;SDS011;7321;50.802;4.336;2023-02-28T16:03:51;5.17;;;4.67;;
14470;SDS011;7321;50.802;4.336;2023-02-28T16:08:59;5.00;;;4.53;;
14470;SDS011;7321;50.802;4.336;2023-02-28T16:11:25;4.43;;;4.03;;
14470;SDS011;7321;50.802;4.336;2023-02-28T16:13:51;4.93;;;4.53;;
14470;SDS011;7321;50.802;4.336;2023-02-28T16:16:22;4.97;;;4.50;;
14470;SDS011;7321;50.802;4.336;2023-02-28T16:18:50;4.93;;;4.10;;
14470;SDS011;7321;50.802;4.336;2023-02-28T16:21:16;5.27;;;4.40;;
14470;SDS011;7321;50.802;4.336;2023-02-28T16:23:42;4.90;;;4.27;;
14470;SDS011;7321;50.802;4.336;2023-02-28T16:26:09;6.80;;;5.20;;
14470;SDS011;7321;50.802;4.336;2023-02-28T16:28:47;5.10;;;4.63;;
14470;SDS011;7321;50.802;4.336;2023-02-28T16:31:13;6.87;;;6.10;;
14470;SDS011;7321;50.802;4.336;2023-02-28T16:33:45;4.40;;;4.00;;
14470;SDS011;7321;50.802;4.336;2023-02-28T16:36:16;5.93;;;5.10;;
14470;SDS011;7321;50.802;4.336;2023-02-28T16:38:43;5.77;;;5.27;;
14470;SDS011;7321;50.802;4.336;2023-02-28T16:41:12;6.13;;;5.53;;
14470;SDS011;7321;50.802;4.336;2023-02-28T16:43:47;6.23;;;5.63;;
14470;SDS011;7321;50.802;4.336;2023-02-28T16:46:17;8.07;;;6.13;;
14470;SDS011;7321;50.802;4.336;2023-02-28T16:48:46;6.17;;;5.20;;
14470;SDS011;7321;50.802;4.336;2023-02-28T16:51:16;6.70;;;4.97;;
14470;SDS011;7321;50.802;4.336;2023-02-28T16:53:43;9.30;;;7.73;;
14470;SDS011;7321;50.802;4.336;2023-02-28T16:56:12;7.30;;;4.10;;
14470;SDS011;7321;50.802;4.336;2023-02-28T16:58:44;7.73;;;6.93;;
14470;SDS011;7321;50.802;4.336;2023-02-28T17:01:10;6.10;;;5.50;;
14470;SDS011;7321;50.802;4.336;2023-02-28T17:03:36;6.13;;;5.50;;
14470;SDS011;7321;50.802;4.336;2023-02-28T17:06:03;6.23;;;5.63;;
14470;SDS011;7321;50.802;4.336;2023-02-28T17:08:31;4.57;;;4.17;;
14470;SDS011;7321;50.802;4.336;2023-02-28T17:10:57;4.57;;;4.17;;
14470;SDS011;7321;50.802;4.336;2023-02-28T17:13:24;6.00;;;4.87;;
14470;SDS011;7321;50.802;4.336;2023-02-28T17:15:50;8.13;;;7.33;;
14470;SDS011;7321;50.802;4.336;2023-02-28T17:18:16;5.10;;;4.47;;
14470;SDS011;7321;50.802;4.336;2023-02-28T17:20:45;5.20;;;4.70;;
14470;SDS011;7321;50.802;4.336;2023-02-28T17:23:14;5.47;;;4.50;;
14470;SDS011;7321;50.802;4.336;2023-02-28T17:25:40;5.10;;;4.60;;
14470;SDS011;7321;50.802;4.336;2023-02-28T17:28:07;5.40;;;4.50;;
14470;SDS011;7321;50.802;4.336;2023-02-28T17:30:34;4.83;;;4.20;;
14470;SDS011;7321;50.802;4.336;2023-02-28T17:33:00;5.03;;;4.20;;
14470;SDS011;7321;50.802;4.336;2023-02-28T17:35:26;6.67;;;4.27;;
14470;SDS011;7321;50.802;4.336;2023-02-28T17:37:52;5.97;;;4.20;;
14470;SDS011;7321;50.802;4.336;2023-02-28T17:40:20;6.03;;;4.63;;
14470;SDS011;7321;50.802;4.336;2023-02-28T17:42:48;5.80;;;4.60;;
14470;SDS011;7321;50.802;4.336;2023-02-28T17:45:14;4.90;;;4.40;;
14470;SDS011;7321;50.802;4.336;2023-02-28T17:47:41;5.17;;;4.50;;
14470;SDS011;7321;50.802;4.336;2023-02-28T17:50:14;5.00;;;4.40;;
14470;SDS011;7321;50.802;4.336;2023-02-28T17:52:42;5.57;;;5.03;;
14470;SDS011;7321;50.802;4.336;2023-02-28T17:55:08;5.83;;;5.23;;